sensor_id;sensor_type;location;lat;lon;timestamp;temperature;humidity
52275;DHT22;38228;50.940;4.024;2022-11-20T00:00:51;5.00;99.90
52275;DHT22;38228;50.940;4.024;2022-11-20T00:03:16;5.10;99.90
52275;DHT22;38228;50.940;4.024;2022-11-20T00:05:43;5.10;99.90
52275;DHT22;38228;50.940;4.024;2022-11-20T00:08:09;5.20;99.90
52275;DHT22;38228;50.940;4.024;2022-11-20T00:10:38;5.30;99.90
52275;DHT22;38228;50.940;4.024;2022-11-20T00:13:04;5.10;99.90
52275;DHT22;38228;50.940;4.024;2022-11-20T00:15:30;5.00;99.90
52275;DHT22;38228;50.940;4.024;2022-11-20T00:17:56;4.90;99.90
52275;DHT22;38228;50.940;4.024;2022-11-20T00:20:22;4.90;99.90
52275;DHT22;38228;50.940;4.024;2022-11-20T00:22:47;5.00;99.90
52275;DHT22;38228;50.940;4.024;2022-11-20T00:25:13;4.80;99.90
52275;DHT22;38228;50.940;4.024;2022-11-20T00:27:39;5.00;99.90
52275;DHT22;38228;50.940;4.024;2022-11-20T00:30:05;5.20;99.90
52275;DHT22;38228;50.940;4.024;2022-11-20T00:32:31;5.40;99.90
52275;DHT22;38228;50.940;4.024;2022-11-20T00:34:57;5.40;99.90
52275;DHT22;38228;50.940;4.024;2022-11-20T00:37:22;5.30;99.90
52275;DHT22;38228;50.940;4.024;2022-11-20T00:39:48;5.20;99.90
52275;DHT22;38228;50.940;4.024;2022-11-20T00:42:14;5.20;99.90
52275;DHT22;38228;50.940;4.024;2022-11-20T00:44:39;5.20;99.90
52275;DHT22;38228;50.940;4.024;2022-11-20T00:47:05;5.00;99.90
52275;DHT22;38228;50.940;4.024;2022-11-20T00:49:31;5.00;99.90
52275;DHT22;38228;50.940;4.024;2022-11-20T00:51:56;5.00;99.90
52275;DHT22;38228;50.940;4.024;2022-11-20T00:54:22;5.00;99.90
52275;DHT22;38228;50.940;4.024;2022-11-20T00:56:48;4.90;99.90
52275;DHT22;38228;50.940;4.024;2022-11-20T00:59:13;4.70;99.90
52275;DHT22;38228;50.940;4.024;2022-11-20T01:01:39;5.00;99.90
52275;DHT22;38228;50.940;4.024;2022-11-20T01:04:05;4.80;99.90
52275;DHT22;38228;50.940;4.024;2022-11-20T01:06:33;4.80;99.90
52275;DHT22;38228;50.940;4.024;2022-11-20T01:09:02;5.00;99.90
52275;DHT22;38228;50.940;4.024;2022-11-20T01:11:30;5.10;99.90
52275;DHT22;38228;50.940;4.024;2022-11-20T01:13:58;5.10;99.90
52275;DHT22;38228;50.940;4.024;2022-11-20T01:16:47;5.10;99.90
52275;DHT22;38228;50.940;4.024;2022-11-20T01:19:16;4.90;99.90
52275;DHT22;38228;50.940;4.024;2022-11-20T01:21:43;4.90;99.90
52275;DHT22;38228;50.940;4.024;2022-11-20T01:24:14;5.10;99.90
52275;DHT22;38228;50.940;4.024;2022-11-20T01:26:41;5.10;99.90
52275;DHT22;38228;50.940;4.024;2022-11-20T01:29:13;5.10;99.90
52275;DHT22;38228;50.940;4.024;2022-11-20T01:31:39;5.30;99.90
52275;DHT22;38228;50.940;4.024;2022-11-20T01:34:08;5.40;99.90
52275;DHT22;38228;50.940;4.024;2022-11-20T01:36:36;5.10;99.90
52275;DHT22;38228;50.940;4.024;2022-11-20T01:39:10;5.00;99.90
52275;DHT22;38228;50.940;4.024;2022-11-20T01:41:36;4.80;99.90
52275;DHT22;38228;50.940;4.024;2022-11-20T01:44:40;4.90;99.90
52275;DHT22;38228;50.940;4.024;2022-11-20T01:47:09;4.90;99.90
52275;DHT22;38228;50.940;4.024;2022-11-20T01:49:59;4.90;99.90
52275;DHT22;38228;50.940;4.024;2022-11-20T01:52:36;4.90;99.90
52275;DHT22;38228;50.940;4.024;2022-11-20T01:55:19;4.90;99.90
52275;DHT22;38228;50.940;4.024;2022-11-20T01:57:48;5.00;99.90
52275;DHT22;38228;50.940;4.024;2022-11-20T02:00:17;4.90;99.90
52275;DHT22;38228;50.940;4.024;2022-11-20T02:02:50;4.80;99.90
52275;DHT22;38228;50.940;4.024;2022-11-20T02:07:52;5.10;99.90
52275;DHT22;38228;50.940;4.024;2022-11-20T02:10:19;5.30;99.90
52275;DHT22;38228;50.940;4.024;2022-11-20T02:12:45;5.30;99.90
52275;DHT22;38228;50.940;4.024;2022-11-20T02:15:30;5.30;99.90
52275;DHT22;38228;50.940;4.024;2022-11-20T02:17:57;5.30;99.90
52275;DHT22;38228;50.940;4.024;2022-11-20T02:20:23;5.30;99.90
52275;DHT22;38228;50.940;4.024;2022-11-20T02:23:02;5.40;99.90
52275;DHT22;38228;50.940;4.024;2022-11-20T02:25:31;5.50;99.90
52275;DHT22;38228;50.940;4.024;2022-11-20T02:27:57;5.50;99.90
52275;DHT22;38228;50.940;4.024;2022-11-20T02:30:23;5.30;99.90
52275;DHT22;38228;50.940;4.024;2022-11-20T02:32:49;5.10;99.90
52275;DHT22;38228;50.940;4.024;2022-11-20T02:37:43;5.10;99.90
52275;DHT22;38228;50.940;4.024;2022-11-20T02:40:10;5.10;99.90
52275;DHT22;38228;50.940;4.024;2022-11-20T02:42:36;5.30;99.90
52275;DHT22;38228;50.940;4.024;2022-11-20T02:45:03;5.40;99.90
52275;DHT22;38228;50.940;4.024;2022-11-20T02:47:30;5.40;99.90
52275;DHT22;38228;50.940;4.024;2022-11-20T02:49:55;5.40;99.90
52275;DHT22;38228;50.940;4.024;2022-11-20T02:52:21;5.50;99.90
52275;DHT22;38228;50.940;4.024;2022-11-20T02:54:47;5.60;99.90
52275;DHT22;38228;50.940;4.024;2022-11-20T02:57:13;5.50;99.90
52275;DHT22;38228;50.940;4.024;2022-11-20T02:59:38;5.40;99.90
52275;DHT22;38228;50.940;4.024;2022-11-20T03:02:04;5.40;99.90
52275;DHT22;38228;50.940;4.024;2022-11-20T03:04:30;5.30;99.90
52275;DHT22;38228;50.940;4.024;2022-11-20T03:06:56;5.50;99.90
52275;DHT22;38228;50.940;4.024;2022-11-20T03:09:22;5.60;99.90
52275;DHT22;38228;50.940;4.024;2022-11-20T03:11:48;5.60;99.90
52275;DHT22;38228;50.940;4.024;2022-11-20T03:14:13;5.60;99.90
52275;DHT22;38228;50.940;4.024;2022-11-20T03:16:39;5.70;99.90
52275;DHT22;38228;50.940;4.024;2022-11-20T03:19:05;5.80;99.90
52275;DHT22;38228;50.940;4.024;2022-11-20T03:21:33;5.80;99.90
52275;DHT22;38228;50.940;4.024;2022-11-20T03:23:58;5.90;99.90
52275;DHT22;38228;50.940;4.024;2022-11-20T03:26:25;6.00;99.90
52275;DHT22;38228;50.940;4.024;2022-11-20T03:28:54;5.90;99.90
52275;DHT22;38228;50.940;4.024;2022-11-20T03:31:23;6.00;99.90
52275;DHT22;38228;50.940;4.024;2022-11-20T03:33:49;6.00;99.90
52275;DHT22;38228;50.940;4.024;2022-11-20T03:36:17;6.00;99.90
52275;DHT22;38228;50.940;4.024;2022-11-20T03:38:43;5.80;99.90
52275;DHT22;38228;50.940;4.024;2022-11-20T03:41:12;5.90;99.90
52275;DHT22;38228;50.940;4.024;2022-11-20T03:43:38;5.90;99.90
52275;DHT22;38228;50.940;4.024;2022-11-20T03:46:05;5.90;99.90
52275;DHT22;38228;50.940;4.024;2022-11-20T03:48:30;5.90;99.90
52275;DHT22;38228;50.940;4.024;2022-11-20T03:51:14;5.80;99.90
52275;DHT22;38228;50.940;4.024;2022-11-20T03:53:41;6.00;99.90
52275;DHT22;38228;50.940;4.024;2022-11-20T03:56:07;6.10;99.90
52275;DHT22;38228;50.940;4.024;2022-11-20T03:58:35;6.00;99.90
52275;DHT22;38228;50.940;4.024;2022-11-20T04:01:14;6.00;99.90
52275;DHT22;38228;50.940;4.024;2022-11-20T04:03:41;6.00;99.90
52275;DHT22;38228;50.940;4.024;2022-11-20T04:06:13;6.20;99.90
52275;DHT22;38228;50.940;4.024;2022-11-20T04:08:39;6.20;99.90
52275;DHT22;38228;50.940;4.024;2022-11-20T04:11:22;6.30;99.90
52275;DHT22;38228;50.940;4.024;2022-11-20T04:13:53;6.30;99.90
52275;DHT22;38228;50.940;4.024;2022-11-20T04:16:21;6.20;99.90
52275;DHT22;38228;50.940;4.024;2022-11-20T04:18:50;6.20;99.90
52275;DHT22;38228;50.940;4.024;2022-11-20T04:21:16;6.20;99.90
52275;DHT22;38228;50.940;4.024;2022-11-20T04:23:42;6.30;99.90
52275;DHT22;38228;50.940;4.024;2022-11-20T04:26:10;6.20;99.90
52275;DHT22;38228;50.940;4.024;2022-11-20T04:28:36;6.00;99.90
52275;DHT22;38228;50.940;4.024;2022-11-20T04:31:05;6.20;99.90
52275;DHT22;38228;50.940;4.024;2022-11-20T04:33:32;6.30;99.90
52275;DHT22;38228;50.940;4.024;2022-11-20T04:36:12;6.20;99.90
52275;DHT22;38228;50.940;4.024;2022-11-20T04:38:38;6.10;99.90
52275;DHT22;38228;50.940;4.024;2022-11-20T04:41:06;6.10;99.90
52275;DHT22;38228;50.940;4.024;2022-11-20T04:43:32;6.10;99.90
52275;DHT22;38228;50.940;4.024;2022-11-20T04:46:00;6.00;99.90
52275;DHT22;38228;50.940;4.024;2022-11-20T04:48:27;6.00;99.90
52275;DHT22;38228;50.940;4.024;2022-11-20T04:50:53;5.90;99.90
52275;DHT22;38228;50.940;4.024;2022-11-20T04:53:19;6.10;99.90
52275;DHT22;38228;50.940;4.024;2022-11-20T04:55:45;6.30;99.90
52275;DHT22;38228;50.940;4.024;2022-11-20T04:58:12;6.20;99.90
52275;DHT22;38228;50.940;4.024;2022-11-20T05:00:38;6.40;99.90
52275;DHT22;38228;50.940;4.024;2022-11-20T05:03:04;6.40;99.90
52275;DHT22;38228;50.940;4.024;2022-11-20T05:05:29;6.40;99.90
52275;DHT22;38228;50.940;4.024;2022-11-20T05:07:58;6.40;99.90
52275;DHT22;38228;50.940;4.024;2022-11-20T05:10:25;6.30;99.90
52275;DHT22;38228;50.940;4.024;2022-11-20T05:12:51;6.30;99.90
52275;DHT22;38228;50.940;4.024;2022-11-20T05:15:17;6.30;99.90
52275;DHT22;38228;50.940;4.024;2022-11-20T05:17:49;6.50;99.90
52275;DHT22;38228;50.940;4.024;2022-11-20T05:20:16;6.50;99.90
52275;DHT22;38228;50.940;4.024;2022-11-20T05:22:42;6.50;99.90
52275;DHT22;38228;50.940;4.024;2022-11-20T05:25:08;6.50;99.90
52275;DHT22;38228;50.940;4.024;2022-11-20T05:27:34;6.50;99.90
52275;DHT22;38228;50.940;4.024;2022-11-20T05:29:59;6.40;99.90
52275;DHT22;38228;50.940;4.024;2022-11-20T05:32:25;6.30;99.90
52275;DHT22;38228;50.940;4.024;2022-11-20T05:34:51;6.30;99.90
52275;DHT22;38228;50.940;4.024;2022-11-20T05:37:17;6.30;99.90
52275;DHT22;38228;50.940;4.024;2022-11-20T05:39:43;6.10;99.90
52275;DHT22;38228;50.940;4.024;2022-11-20T05:42:08;6.20;99.90
52275;DHT22;38228;50.940;4.024;2022-11-20T05:44:53;6.30;99.90
52275;DHT22;38228;50.940;4.024;2022-11-20T05:47:18;6.40;99.90
52275;DHT22;38228;50.940;4.024;2022-11-20T05:49:44;6.30;99.90
52275;DHT22;38228;50.940;4.024;2022-11-20T05:52:10;6.30;99.90
52275;DHT22;38228;50.940;4.024;2022-11-20T05:54:35;6.30;99.90
52275;DHT22;38228;50.940;4.024;2022-11-20T05:57:01;6.40;99.90
52275;DHT22;38228;50.940;4.024;2022-11-20T05:59:27;6.40;99.90
52275;DHT22;38228;50.940;4.024;2022-11-20T06:01:52;6.40;99.90
52275;DHT22;38228;50.940;4.024;2022-11-20T06:04:18;6.40;99.90
52275;DHT22;38228;50.940;4.024;2022-11-20T06:06:44;6.50;99.90
52275;DHT22;38228;50.940;4.024;2022-11-20T06:09:09;6.40;99.90
52275;DHT22;38228;50.940;4.024;2022-11-20T06:11:35;6.40;99.90
52275;DHT22;38228;50.940;4.024;2022-11-20T06:14:00;6.40;99.90
52275;DHT22;38228;50.940;4.024;2022-11-20T06:16:26;6.30;99.90
52275;DHT22;38228;50.940;4.024;2022-11-20T06:18:52;6.30;99.90
52275;DHT22;38228;50.940;4.024;2022-11-20T06:21:20;6.20;99.90
52275;DHT22;38228;50.940;4.024;2022-11-20T06:23:46;6.30;99.90
52275;DHT22;38228;50.940;4.024;2022-11-20T06:26:17;6.40;99.90
52275;DHT22;38228;50.940;4.024;2022-11-20T06:28:43;6.40;99.90
52275;DHT22;38228;50.940;4.024;2022-11-20T06:31:12;6.40;99.90
52275;DHT22;38228;50.940;4.024;2022-11-20T06:33:39;6.40;99.90
52275;DHT22;38228;50.940;4.024;2022-11-20T06:36:05;6.40;99.90
52275;DHT22;38228;50.940;4.024;2022-11-20T06:38:31;6.40;99.90
52275;DHT22;38228;50.940;4.024;2022-11-20T06:40:56;6.40;99.90
52275;DHT22;38228;50.940;4.024;2022-11-20T06:43:23;6.50;99.90
52275;DHT22;38228;50.940;4.024;2022-11-20T06:45:53;6.40;99.90
52275;DHT22;38228;50.940;4.024;2022-11-20T06:48:19;6.50;99.90
52275;DHT22;38228;50.940;4.024;2022-11-20T06:50:44;6.60;99.90
52275;DHT22;38228;50.940;4.024;2022-11-20T06:53:10;6.70;99.90
52275;DHT22;38228;50.940;4.024;2022-11-20T06:55:36;6.60;99.90
52275;DHT22;38228;50.940;4.024;2022-11-20T06:58:02;6.60;99.90
52275;DHT22;38228;50.940;4.024;2022-11-20T07:00:27;6.60;99.90
52275;DHT22;38228;50.940;4.024;2022-11-20T07:02:53;6.60;99.90
52275;DHT22;38228;50.940;4.024;2022-11-20T07:05:19;6.70;99.90
52275;DHT22;38228;50.940;4.024;2022-11-20T07:07:44;6.70;99.90
52275;DHT22;38228;50.940;4.024;2022-11-20T07:10:10;6.70;99.90
52275;DHT22;38228;50.940;4.024;2022-11-20T07:12:36;6.70;99.90
52275;DHT22;38228;50.940;4.024;2022-11-20T07:15:02;6.70;99.90
52275;DHT22;38228;50.940;4.024;2022-11-20T07:17:27;6.70;99.90
52275;DHT22;38228;50.940;4.024;2022-11-20T07:19:53;6.90;99.90
52275;DHT22;38228;50.940;4.024;2022-11-20T07:22:19;6.90;99.90
52275;DHT22;38228;50.940;4.024;2022-11-20T07:24:47;6.90;99.90
52275;DHT22;38228;50.940;4.024;2022-11-20T07:27:12;6.90;99.90
52275;DHT22;38228;50.940;4.024;2022-11-20T07:29:40;6.80;99.90
52275;DHT22;38228;50.940;4.024;2022-11-20T07:32:06;6.80;99.90
52275;DHT22;38228;50.940;4.024;2022-11-20T07:34:31;6.80;99.90
52275;DHT22;38228;50.940;4.024;2022-11-20T07:36:57;6.90;99.90
52275;DHT22;38228;50.940;4.024;2022-11-20T07:39:23;6.90;99.90
52275;DHT22;38228;50.940;4.024;2022-11-20T07:41:48;7.00;99.90
52275;DHT22;38228;50.940;4.024;2022-11-20T07:44:14;7.20;99.90
52275;DHT22;38228;50.940;4.024;2022-11-20T07:46:40;7.10;99.90
52275;DHT22;38228;50.940;4.024;2022-11-20T07:49:05;7.10;99.90
52275;DHT22;38228;50.940;4.024;2022-11-20T07:51:31;7.10;99.90
52275;DHT22;38228;50.940;4.024;2022-11-20T07:53:56;7.20;99.90
52275;DHT22;38228;50.940;4.024;2022-11-20T07:56:22;7.10;99.90
52275;DHT22;38228;50.940;4.024;2022-11-20T07:58:48;7.00;99.90
52275;DHT22;38228;50.940;4.024;2022-11-20T08:01:14;7.00;99.90
52275;DHT22;38228;50.940;4.024;2022-11-20T08:03:39;7.00;99.90
52275;DHT22;38228;50.940;4.024;2022-11-20T08:06:05;7.10;99.90
52275;DHT22;38228;50.940;4.024;2022-11-20T08:08:31;7.10;99.90
52275;DHT22;38228;50.940;4.024;2022-11-20T08:10:58;7.00;99.90
52275;DHT22;38228;50.940;4.024;2022-11-20T08:13:44;7.00;99.90
52275;DHT22;38228;50.940;4.024;2022-11-20T08:16:28;7.10;99.90
52275;DHT22;38228;50.940;4.024;2022-11-20T08:18:54;7.20;99.90
52275;DHT22;38228;50.940;4.024;2022-11-20T08:21:20;7.20;99.90
52275;DHT22;38228;50.940;4.024;2022-11-20T08:23:45;7.20;99.90
52275;DHT22;38228;50.940;4.024;2022-11-20T08:26:11;7.30;99.90
52275;DHT22;38228;50.940;4.024;2022-11-20T08:28:36;7.40;99.90
52275;DHT22;38228;50.940;4.024;2022-11-20T08:31:03;7.30;99.90
52275;DHT22;38228;50.940;4.024;2022-11-20T08:33:29;7.40;99.90
52275;DHT22;38228;50.940;4.024;2022-11-20T08:36:00;7.40;99.90
52275;DHT22;38228;50.940;4.024;2022-11-20T08:38:26;7.40;99.90
52275;DHT22;38228;50.940;4.024;2022-11-20T08:40:52;7.40;99.90
52275;DHT22;38228;50.940;4.024;2022-11-20T08:43:47;7.50;99.90
52275;DHT22;38228;50.940;4.024;2022-11-20T08:46:13;7.40;99.90
52275;DHT22;38228;50.940;4.024;2022-11-20T08:48:39;7.50;99.90
52275;DHT22;38228;50.940;4.024;2022-11-20T08:51:05;7.50;99.90
52275;DHT22;38228;50.940;4.024;2022-11-20T08:53:30;7.50;99.90
52275;DHT22;38228;50.940;4.024;2022-11-20T08:55:57;7.60;99.90
52275;DHT22;38228;50.940;4.024;2022-11-20T08:58:23;7.60;99.90
52275;DHT22;38228;50.940;4.024;2022-11-20T09:00:49;7.70;99.90
52275;DHT22;38228;50.940;4.024;2022-11-20T09:03:15;7.90;99.90
52275;DHT22;38228;50.940;4.024;2022-11-20T09:05:41;8.00;99.90
52275;DHT22;38228;50.940;4.024;2022-11-20T09:08:06;7.80;99.90
52275;DHT22;38228;50.940;4.024;2022-11-20T09:10:32;7.80;99.90
52275;DHT22;38228;50.940;4.024;2022-11-20T09:12:58;7.80;99.90
52275;DHT22;38228;50.940;4.024;2022-11-20T09:15:25;7.70;99.90
52275;DHT22;38228;50.940;4.024;2022-11-20T09:17:55;7.80;99.90
52275;DHT22;38228;50.940;4.024;2022-11-20T09:20:21;7.80;99.90
52275;DHT22;38228;50.940;4.024;2022-11-20T09:22:48;7.80;99.90
52275;DHT22;38228;50.940;4.024;2022-11-20T09:25:13;7.80;99.90
52275;DHT22;38228;50.940;4.024;2022-11-20T09:27:39;7.90;99.90
52275;DHT22;38228;50.940;4.024;2022-11-20T09:30:07;7.90;99.90
52275;DHT22;38228;50.940;4.024;2022-11-20T09:32:33;7.90;99.90
52275;DHT22;38228;50.940;4.024;2022-11-20T09:34:59;8.00;99.90
52275;DHT22;38228;50.940;4.024;2022-11-20T09:37:24;8.10;99.90
52275;DHT22;38228;50.940;4.024;2022-11-20T09:39:50;8.20;99.90
52275;DHT22;38228;50.940;4.024;2022-11-20T09:47:57;8.40;99.90
52275;DHT22;38228;50.940;4.024;2022-11-20T09:50:52;8.40;99.90
52275;DHT22;38228;50.940;4.024;2022-11-20T09:56:26;8.60;99.90
52275;DHT22;38228;50.940;4.024;2022-11-20T09:58:54;8.60;99.90
52275;DHT22;38228;50.940;4.024;2022-11-20T10:01:22;8.80;99.90
52275;DHT22;38228;50.940;4.024;2022-11-20T10:06:34;8.80;99.90
52275;DHT22;38228;50.940;4.024;2022-11-20T10:12:12;8.80;99.90
52275;DHT22;38228;50.940;4.024;2022-11-20T10:14:57;9.00;99.90
52275;DHT22;38228;50.940;4.024;2022-11-20T10:23:18;9.40;99.90
52275;DHT22;38228;50.940;4.024;2022-11-20T10:28:50;9.60;99.90
52275;DHT22;38228;50.940;4.024;2022-11-20T10:31:38;9.60;99.90
52275;DHT22;38228;50.940;4.024;2022-11-20T10:34:34;9.70;99.90
52275;DHT22;38228;50.940;4.024;2022-11-20T10:37:15;9.60;99.90
52275;DHT22;38228;50.940;4.024;2022-11-20T10:42:22;9.60;99.90
52275;DHT22;38228;50.940;4.024;2022-11-20T10:44:55;9.60;99.90
52275;DHT22;38228;50.940;4.024;2022-11-20T10:47:30;9.70;99.90
52275;DHT22;38228;50.940;4.024;2022-11-20T10:50:02;9.80;99.90
52275;DHT22;38228;50.940;4.024;2022-11-20T10:55:40;9.90;99.90
52275;DHT22;38228;50.940;4.024;2022-11-20T10:58:28;9.80;99.90
52275;DHT22;38228;50.940;4.024;2022-11-20T11:01:13;9.80;99.90
52275;DHT22;38228;50.940;4.024;2022-11-20T11:03:39;9.70;99.90
52275;DHT22;38228;50.940;4.024;2022-11-20T11:08:36;9.80;99.90
52275;DHT22;38228;50.940;4.024;2022-11-20T11:11:24;9.80;99.90
52275;DHT22;38228;50.940;4.024;2022-11-20T11:13:50;9.80;99.90
52275;DHT22;38228;50.940;4.024;2022-11-20T11:16:21;9.80;99.90
52275;DHT22;38228;50.940;4.024;2022-11-20T11:18:48;9.80;99.90
52275;DHT22;38228;50.940;4.024;2022-11-20T11:21:26;9.80;99.90
52275;DHT22;38228;50.940;4.024;2022-11-20T11:24:00;9.70;99.90
52275;DHT22;38228;50.940;4.024;2022-11-20T11:26:26;9.70;99.90
52275;DHT22;38228;50.940;4.024;2022-11-20T11:28:59;9.70;99.90
52275;DHT22;38228;50.940;4.024;2022-11-20T11:31:29;9.70;99.90
52275;DHT22;38228;50.940;4.024;2022-11-20T11:34:16;9.70;99.90
52275;DHT22;38228;50.940;4.024;2022-11-20T11:36:52;9.60;99.90
52275;DHT22;38228;50.940;4.024;2022-11-20T11:39:20;9.50;99.90
52275;DHT22;38228;50.940;4.024;2022-11-20T11:41:47;9.50;99.90
52275;DHT22;38228;50.940;4.024;2022-11-20T11:44:20;9.50;99.90
52275;DHT22;38228;50.940;4.024;2022-11-20T11:47:17;9.60;99.90
52275;DHT22;38228;50.940;4.024;2022-11-20T11:49:46;9.70;99.90
52275;DHT22;38228;50.940;4.024;2022-11-20T11:57:29;9.40;99.90
52275;DHT22;38228;50.940;4.024;2022-11-20T12:08:10;9.00;99.90
52275;DHT22;38228;50.940;4.024;2022-11-20T12:16:13;9.10;99.90
52275;DHT22;38228;50.940;4.024;2022-11-20T12:18:40;9.10;99.90
52275;DHT22;38228;50.940;4.024;2022-11-20T12:21:25;9.10;99.90
52275;DHT22;38228;50.940;4.024;2022-11-20T12:24:17;9.20;99.90
52275;DHT22;38228;50.940;4.024;2022-11-20T12:32:03;9.10;99.90
52275;DHT22;38228;50.940;4.024;2022-11-20T12:39:55;9.10;99.90
52275;DHT22;38228;50.940;4.024;2022-11-20T12:45:35;9.20;99.90
52275;DHT22;38228;50.940;4.024;2022-11-20T12:48:25;9.40;99.90
52275;DHT22;38228;50.940;4.024;2022-11-20T12:51:25;9.40;99.90
52275;DHT22;38228;50.940;4.024;2022-11-20T13:00:08;9.50;99.90
52275;DHT22;38228;50.940;4.024;2022-11-20T13:08:18;9.40;99.90
52275;DHT22;38228;50.940;4.024;2022-11-20T13:19:17;9.20;99.90
52275;DHT22;38228;50.940;4.024;2022-11-20T13:21:45;9.30;99.90
52275;DHT22;38228;50.940;4.024;2022-11-20T13:24:24;9.20;99.90
52275;DHT22;38228;50.940;4.024;2022-11-20T13:29:34;9.30;99.90
52275;DHT22;38228;50.940;4.024;2022-11-20T13:32:21;9.30;99.90
52275;DHT22;38228;50.940;4.024;2022-11-20T13:35:01;9.20;99.90
52275;DHT22;38228;50.940;4.024;2022-11-20T13:37:33;9.20;99.90
52275;DHT22;38228;50.940;4.024;2022-11-20T13:43:02;9.10;99.90
52275;DHT22;38228;50.940;4.024;2022-11-20T13:45:30;9.10;99.90
52275;DHT22;38228;50.940;4.024;2022-11-20T13:47:57;9.10;99.90
52275;DHT22;38228;50.940;4.024;2022-11-20T13:50:40;9.00;99.90
52275;DHT22;38228;50.940;4.024;2022-11-20T13:55:59;9.20;99.90
52275;DHT22;38228;50.940;4.024;2022-11-20T14:01:16;9.10;99.90
52275;DHT22;38228;50.940;4.024;2022-11-20T14:03:42;9.10;99.90
52275;DHT22;38228;50.940;4.024;2022-11-20T14:06:39;9.10;99.90
52275;DHT22;38228;50.940;4.024;2022-11-20T14:09:00;9.00;99.90
52275;DHT22;38228;50.940;4.024;2022-11-20T14:11:28;9.00;99.90
52275;DHT22;38228;50.940;4.024;2022-11-20T14:16:24;8.90;99.90
52275;DHT22;38228;50.940;4.024;2022-11-20T14:18:50;8.90;99.90
52275;DHT22;38228;50.940;4.024;2022-11-20T14:21:27;8.90;99.90
52275;DHT22;38228;50.940;4.024;2022-11-20T14:24:27;8.80;99.90
52275;DHT22;38228;50.940;4.024;2022-11-20T14:26:47;9.00;99.90
52275;DHT22;38228;50.940;4.024;2022-11-20T14:31:43;9.00;99.90
52275;DHT22;38228;50.940;4.024;2022-11-20T14:34:20;9.10;99.90
52275;DHT22;38228;50.940;4.024;2022-11-20T14:36:46;9.20;99.90
52275;DHT22;38228;50.940;4.024;2022-11-20T14:39:20;9.20;99.90
52275;DHT22;38228;50.940;4.024;2022-11-20T14:41:53;9.20;99.90
52275;DHT22;38228;50.940;4.024;2022-11-20T14:44:23;9.30;99.90
52275;DHT22;38228;50.940;4.024;2022-11-20T14:46:50;9.20;99.90
52275;DHT22;38228;50.940;4.024;2022-11-20T14:49:16;9.30;99.90
52275;DHT22;38228;50.940;4.024;2022-11-20T14:51:42;9.30;99.90
52275;DHT22;38228;50.940;4.024;2022-11-20T14:54:15;9.30;99.90
52275;DHT22;38228;50.940;4.024;2022-11-20T14:56:42;9.40;99.90
52275;DHT22;38228;50.940;4.024;2022-11-20T14:59:08;9.50;99.90
52275;DHT22;38228;50.940;4.024;2022-11-20T15:01:35;9.50;99.90
52275;DHT22;38228;50.940;4.024;2022-11-20T15:04:11;9.50;99.90
52275;DHT22;38228;50.940;4.024;2022-11-20T15:06:37;9.50;99.90
52275;DHT22;38228;50.940;4.024;2022-11-20T15:09:14;9.40;99.90
52275;DHT22;38228;50.940;4.024;2022-11-20T15:11:52;9.40;99.90
52275;DHT22;38228;50.940;4.024;2022-11-20T15:14:19;9.50;99.90
52275;DHT22;38228;50.940;4.024;2022-11-20T15:16:45;9.50;99.90
52275;DHT22;38228;50.940;4.024;2022-11-20T15:19:22;9.40;99.90
52275;DHT22;38228;50.940;4.024;2022-11-20T15:21:48;9.40;99.90
52275;DHT22;38228;50.940;4.024;2022-11-20T15:24:14;9.40;99.90
52275;DHT22;38228;50.940;4.024;2022-11-20T15:26:41;9.40;99.90
52275;DHT22;38228;50.940;4.024;2022-11-20T15:29:12;9.30;99.90
52275;DHT22;38228;50.940;4.024;2022-11-20T15:31:39;9.30;99.90
52275;DHT22;38228;50.940;4.024;2022-11-20T15:34:12;9.30;99.90
52275;DHT22;38228;50.940;4.024;2022-11-20T15:36:42;9.20;99.90
52275;DHT22;38228;50.940;4.024;2022-11-20T15:39:09;9.10;99.90
52275;DHT22;38228;50.940;4.024;2022-11-20T15:41:35;9.00;99.90
52275;DHT22;38228;50.940;4.024;2022-11-20T15:44:01;9.10;99.90
52275;DHT22;38228;50.940;4.024;2022-11-20T15:46:29;9.20;99.90
52275;DHT22;38228;50.940;4.024;2022-11-20T15:48:56;9.20;99.90
52275;DHT22;38228;50.940;4.024;2022-11-20T15:51:35;9.20;99.90
52275;DHT22;38228;50.940;4.024;2022-11-20T15:54:09;9.20;99.90
52275;DHT22;38228;50.940;4.024;2022-11-20T15:56:35;9.20;99.90
52275;DHT22;38228;50.940;4.024;2022-11-20T15:59:01;9.30;99.90
52275;DHT22;38228;50.940;4.024;2022-11-20T16:01:26;9.20;99.90
52275;DHT22;38228;50.940;4.024;2022-11-20T16:03:52;9.20;99.90
52275;DHT22;38228;50.940;4.024;2022-11-20T16:06:18;9.20;99.90
52275;DHT22;38228;50.940;4.024;2022-11-20T16:08:43;9.10;99.90
52275;DHT22;38228;50.940;4.024;2022-11-20T16:11:12;9.00;99.90
52275;DHT22;38228;50.940;4.024;2022-11-20T16:13:38;8.90;99.90
52275;DHT22;38228;50.940;4.024;2022-11-20T16:16:36;9.00;99.90
52275;DHT22;38228;50.940;4.024;2022-11-20T16:19:03;9.00;99.90
52275;DHT22;38228;50.940;4.024;2022-11-20T16:21:29;9.00;99.90
52275;DHT22;38228;50.940;4.024;2022-11-20T16:23:59;8.90;99.90
52275;DHT22;38228;50.940;4.024;2022-11-20T16:26:25;8.90;99.90
52275;DHT22;38228;50.940;4.024;2022-11-20T16:28:51;8.80;99.90
52275;DHT22;38228;50.940;4.024;2022-11-20T16:31:17;8.90;99.90
52275;DHT22;38228;50.940;4.024;2022-11-20T16:33:49;8.90;99.90
52275;DHT22;38228;50.940;4.024;2022-11-20T16:36:17;8.90;99.90
52275;DHT22;38228;50.940;4.024;2022-11-20T16:38:42;8.90;99.90
52275;DHT22;38228;50.940;4.024;2022-11-20T16:41:09;8.90;99.90
52275;DHT22;38228;50.940;4.024;2022-11-20T16:43:53;8.70;99.90
52275;DHT22;38228;50.940;4.024;2022-11-20T16:46:21;8.60;99.90
52275;DHT22;38228;50.940;4.024;2022-11-20T16:48:57;8.60;99.90
52275;DHT22;38228;50.940;4.024;2022-11-20T16:51:24;8.50;99.90
52275;DHT22;38228;50.940;4.024;2022-11-20T16:53:50;8.40;99.90
52275;DHT22;38228;50.940;4.024;2022-11-20T16:56:18;8.60;99.90
52275;DHT22;38228;50.940;4.024;2022-11-20T16:58:45;8.60;99.90
52275;DHT22;38228;50.940;4.024;2022-11-20T17:01:19;8.70;99.90
52275;DHT22;38228;50.940;4.024;2022-11-20T17:03:52;8.80;99.90
52275;DHT22;38228;50.940;4.024;2022-11-20T17:06:23;8.80;99.90
52275;DHT22;38228;50.940;4.024;2022-11-20T17:08:48;9.00;99.90
52275;DHT22;38228;50.940;4.024;2022-11-20T17:11:16;9.00;99.90
52275;DHT22;38228;50.940;4.024;2022-11-20T17:13:43;9.00;99.90
52275;DHT22;38228;50.940;4.024;2022-11-20T17:16:11;9.10;99.90
52275;DHT22;38228;50.940;4.024;2022-11-20T17:18:37;9.10;99.90
52275;DHT22;38228;50.940;4.024;2022-11-20T17:21:03;9.10;99.90
52275;DHT22;38228;50.940;4.024;2022-11-20T17:23:38;9.10;99.90
52275;DHT22;38228;50.940;4.024;2022-11-20T17:26:08;8.90;99.90
52275;DHT22;38228;50.940;4.024;2022-11-20T17:28:35;9.00;99.90
52275;DHT22;38228;50.940;4.024;2022-11-20T17:31:07;8.80;99.90
52275;DHT22;38228;50.940;4.024;2022-11-20T17:33:34;8.80;99.90
52275;DHT22;38228;50.940;4.024;2022-11-20T17:36:00;8.80;99.90
52275;DHT22;38228;50.940;4.024;2022-11-20T17:38:26;8.70;99.90
52275;DHT22;38228;50.940;4.024;2022-11-20T17:40:52;8.70;99.90
52275;DHT22;38228;50.940;4.024;2022-11-20T17:43:17;8.80;99.90